createdAt,value
2023-01-15T00:00:04.765Z,10.00
2023-01-15T00:02:32.755Z,9.90
2023-01-15T00:05:03.033Z,9.80
2023-01-15T00:07:32.654Z,9.80
2023-01-15T00:10:00.509Z,9.80
2023-01-15T00:12:28.331Z,9.90
2023-01-15T00:14:58.173Z,9.90
2023-01-15T00:17:26.306Z,9.90
2023-01-15T00:19:54.198Z,9.80
2023-01-15T00:22:21.969Z,9.70
2023-01-15T00:25:08.579Z,9.80
2023-01-15T00:27:39.635Z,9.80
2023-01-15T00:30:10.205Z,9.80
2023-01-15T00:32:38.061Z,9.70
2023-01-15T00:35:06.792Z,9.70
2023-01-15T00:37:34.586Z,9.70
2023-01-15T00:40:03.850Z,9.50
2023-01-15T00:42:31.895Z,9.60
2023-01-15T00:45:05.663Z,9.60
2023-01-15T00:47:33.709Z,9.70
2023-01-15T00:50:02.079Z,9.70
2023-01-15T00:52:29.883Z,9.70
2023-01-15T00:54:57.689Z,9.70
2023-01-15T00:57:26.899Z,9.80
2023-01-15T00:59:54.752Z,9.80
2023-01-15T01:02:22.640Z,9.90
2023-01-15T01:04:50.502Z,9.80
2023-01-15T01:07:18.650Z,9.70
2023-01-15T01:09:46.460Z,9.70
2023-01-15T01:12:14.276Z,9.70
2023-01-15T01:14:44.020Z,9.60
2023-01-15T01:17:12.488Z,9.60
2023-01-15T01:19:40.342Z,9.70
2023-01-15T01:22:08.195Z,9.60
2023-01-15T01:24:36.113Z,9.50
2023-01-15T01:27:03.920Z,9.60
2023-01-15T01:29:31.773Z,9.70
2023-01-15T01:32:00.916Z,9.60
2023-01-15T01:34:28.786Z,9.60
2023-01-15T01:36:56.632Z,9.60
2023-01-15T01:39:24.512Z,9.70
2023-01-15T01:41:52.307Z,9.90
2023-01-15T01:45:01.456Z,9.80
2023-01-15T01:47:32.451Z,9.80
2023-01-15T01:50:02.911Z,9.50
2023-01-15T01:52:33.921Z,9.60
2023-01-15T01:55:03.666Z,9.70
2023-01-15T01:57:32.239Z,9.80
2023-01-15T02:00:02.852Z,9.60
2023-01-15T02:02:32.814Z,9.80
2023-01-15T02:05:01.011Z,9.70
2023-01-15T02:07:31.484Z,9.70
2023-01-15T02:09:59.388Z,9.70
2023-01-15T02:12:32.401Z,9.60
2023-01-15T02:15:08.908Z,9.60
2023-01-15T02:17:47.580Z,9.80
2023-01-15T02:20:23.877Z,9.70
2023-01-15T02:23:06.198Z,9.60
2023-01-15T02:25:50.758Z,9.70
2023-01-15T02:28:24.942Z,9.80
2023-01-15T02:31:00.620Z,9.80
2023-01-15T02:33:34.919Z,9.70
2023-01-15T02:36:06.479Z,9.60
2023-01-15T02:38:39.543Z,9.60
2023-01-15T02:41:16.222Z,9.60
2023-01-15T02:43:48.898Z,9.50
2023-01-15T02:46:19.392Z,9.40
2023-01-15T02:48:54.823Z,9.40
2023-01-15T02:51:26.801Z,9.30
2023-01-15T02:53:59.005Z,9.40
2023-01-15T02:56:31.132Z,9.40
2023-01-15T02:59:05.922Z,9.60
2023-01-15T03:01:38.010Z,9.30
2023-01-15T03:04:11.872Z,9.30
2023-01-15T03:06:44.791Z,9.40
2023-01-15T03:09:15.886Z,9.50
2023-01-15T03:11:47.219Z,9.50
2023-01-15T03:14:21.799Z,9.40
2023-01-15T03:16:53.989Z,9.40
2023-01-15T03:19:26.866Z,9.40
2023-01-15T03:21:59.140Z,9.50
2023-01-15T03:24:32.893Z,9.20
2023-01-15T03:27:02.033Z,9.30
2023-01-15T03:29:35.629Z,9.40
2023-01-15T03:32:03.879Z,9.20
2023-01-15T03:34:37.759Z,9.30
2023-01-15T03:37:06.973Z,9.20
2023-01-15T03:39:35.075Z,9.30
2023-01-15T03:42:16.098Z,9.40
2023-01-15T03:44:53.669Z,9.50
2023-01-15T03:47:34.217Z,9.50
2023-01-15T03:50:07.255Z,9.60
2023-01-15T03:52:43.375Z,9.60
2023-01-15T03:55:15.234Z,9.50
2023-01-15T03:57:47.617Z,9.40
2023-01-15T04:00:22.455Z,9.30
2023-01-15T04:02:51.976Z,9.50
2023-01-15T04:05:20.149Z,9.50
2023-01-15T04:07:49.376Z,9.50
2023-01-15T04:10:17.702Z,9.50
2023-01-15T04:12:45.564Z,9.40
2023-01-15T04:15:13.912Z,9.40
2023-01-15T04:17:43.188Z,9.30
2023-01-15T04:20:12.197Z,9.30
2023-01-15T04:22:40.564Z,9.40
2023-01-15T04:25:09.563Z,9.40
2023-01-15T04:27:37.698Z,9.20
2023-01-15T04:30:06.366Z,9.30
2023-01-15T04:32:34.216Z,9.40
2023-01-15T04:35:03.417Z,9.30
2023-01-15T04:37:31.278Z,9.40
2023-01-15T04:39:59.142Z,9.40
2023-01-15T04:42:44.219Z,9.40
2023-01-15T04:45:12.216Z,9.20
2023-01-15T04:47:40.112Z,9.10
2023-01-15T04:50:11.810Z,9.10
2023-01-15T04:52:39.661Z,9.20
2023-01-15T04:55:07.831Z,9.60
2023-01-15T04:57:36.953Z,9.20
2023-01-15T05:00:05.492Z,9.20
2023-01-15T05:02:33.404Z,9.10
2023-01-15T05:05:01.305Z,9.00
2023-01-15T05:07:30.435Z,9.00
2023-01-15T05:09:58.242Z,9.10
2023-01-15T05:12:26.202Z,9.10
2023-01-15T05:14:54.191Z,9.20
2023-01-15T05:17:21.996Z,9.20
2023-01-15T05:19:49.836Z,9.10
2023-01-15T05:22:17.759Z,8.90
2023-01-15T05:24:46.996Z,8.80
2023-01-15T05:27:14.845Z,8.80
2023-01-15T05:29:42.634Z,9.00
2023-01-15T05:32:10.554Z,8.90
2023-01-15T05:34:38.411Z,8.80
2023-01-15T05:37:06.237Z,8.80
2023-01-15T05:39:34.054Z,8.80
2023-01-15T05:42:03.229Z,8.80
2023-01-15T05:44:31.822Z,8.60
2023-01-15T05:47:03.223Z,8.60
2023-01-15T05:49:31.270Z,8.60
2023-01-15T05:52:01.252Z,8.70
2023-01-15T05:54:31.056Z,8.80
2023-01-15T05:56:58.950Z,8.80
2023-01-15T05:59:30.304Z,8.60
2023-01-15T06:01:58.470Z,8.60
2023-01-15T06:04:26.957Z,8.80
2023-01-15T06:06:56.014Z,8.70
2023-01-15T06:09:24.299Z,8.70
2023-01-15T06:11:53.557Z,8.70
2023-01-15T06:14:21.796Z,8.60
2023-01-15T06:16:51.075Z,8.60
2023-01-15T06:19:18.988Z,8.60
2023-01-15T06:21:46.852Z,8.60
2023-01-15T06:24:16.706Z,8.60
2023-01-15T06:26:44.701Z,8.80
2023-01-15T06:29:13.402Z,8.70
2023-01-15T06:31:41.348Z,8.60
2023-01-15T06:34:10.521Z,8.40
2023-01-15T06:36:38.345Z,8.60
2023-01-15T06:39:06.209Z,8.70
2023-01-15T06:41:51.482Z,8.70
2023-01-15T06:44:37.225Z,8.70
2023-01-15T06:47:25.051Z,8.70
2023-01-15T06:49:57.604Z,8.70
2023-01-15T06:52:26.986Z,8.60
2023-01-15T06:54:55.219Z,8.50
2023-01-15T06:57:23.470Z,8.70
2023-01-15T06:59:51.801Z,8.60
2023-01-15T07:02:21.416Z,8.60
2023-01-15T07:04:49.878Z,8.60
2023-01-15T07:07:20.411Z,8.60
2023-01-15T07:09:48.586Z,8.60
2023-01-15T07:12:17.205Z,8.60
2023-01-15T07:14:45.228Z,8.70
2023-01-15T07:17:13.580Z,8.70
2023-01-15T07:19:41.684Z,8.80
2023-01-15T07:22:11.458Z,8.70
2023-01-15T07:24:40.652Z,8.90
2023-01-15T07:27:08.502Z,8.90
2023-01-15T07:29:36.425Z,8.90
2023-01-15T07:32:04.292Z,8.80
2023-01-15T07:34:32.107Z,8.80
2023-01-15T07:36:59.961Z,8.80
2023-01-15T07:39:28.391Z,8.80
2023-01-15T07:42:15.281Z,8.80
2023-01-15T07:45:00.566Z,8.80
2023-01-15T07:47:46.755Z,8.70
2023-01-15T07:50:16.055Z,8.70
2023-01-15T07:52:44.036Z,8.60
2023-01-15T07:55:12.736Z,8.80
2023-01-15T07:57:43.501Z,8.70
2023-01-15T08:00:13.963Z,8.70
2023-01-15T08:02:42.491Z,8.70
2023-01-15T08:05:12.322Z,8.90
2023-01-15T08:07:41.326Z,8.90
2023-01-15T08:10:10.653Z,8.90
2023-01-15T08:13:04.453Z,8.80
2023-01-15T08:15:38.911Z,8.90
2023-01-15T08:18:07.149Z,8.80
2023-01-15T08:20:36.195Z,8.80
2023-01-15T08:23:04.016Z,8.90
2023-01-15T08:25:31.841Z,8.80
2023-01-15T08:28:03.183Z,8.80
2023-01-15T08:30:31.091Z,8.80
2023-01-15T08:33:03.525Z,8.90
2023-01-15T08:35:32.052Z,8.80
2023-01-15T08:37:59.958Z,8.90
2023-01-15T08:40:28.192Z,8.90
2023-01-15T08:42:56.687Z,8.80
2023-01-15T08:45:24.739Z,9.00
2023-01-15T08:47:57.001Z,8.90
2023-01-15T08:50:26.227Z,8.90
2023-01-15T08:52:54.084Z,9.10
2023-01-15T08:55:21.895Z,9.10
2023-01-15T08:57:49.754Z,8.90
2023-01-15T09:00:18.313Z,8.90
2023-01-15T09:02:47.705Z,8.90
2023-01-15T09:05:17.225Z,8.90
2023-01-15T09:07:46.525Z,8.90
2023-01-15T09:10:14.418Z,8.80
2023-01-15T09:12:42.457Z,8.90
2023-01-15T09:15:11.601Z,8.90
2023-01-15T09:17:40.799Z,9.00
2023-01-15T09:20:10.556Z,9.00
2023-01-15T09:22:38.411Z,8.90
2023-01-15T09:25:09.001Z,9.00
2023-01-15T09:27:37.824Z,9.00
2023-01-15T09:30:07.185Z,9.10
2023-01-15T09:32:35.016Z,9.20
2023-01-15T09:35:03.503Z,9.10
2023-01-15T09:37:31.336Z,9.00
2023-01-15T09:39:59.193Z,9.20
2023-01-15T09:42:43.660Z,9.20
2023-01-15T09:45:21.556Z,9.30
2023-01-15T09:48:05.901Z,9.30
2023-01-15T09:50:46.794Z,9.40
2023-01-15T09:53:36.810Z,9.20
2023-01-15T09:56:05.709Z,9.20
2023-01-15T09:58:38.337Z,9.30
2023-01-15T10:01:07.374Z,9.40
2023-01-15T10:03:41.784Z,9.20
2023-01-15T10:06:16.391Z,9.30
2023-01-15T10:08:46.461Z,9.40
2023-01-15T10:11:48.992Z,9.50
2023-01-15T10:14:31.220Z,9.50
2023-01-15T10:16:59.420Z,9.50
2023-01-15T10:19:37.184Z,9.40
2023-01-15T10:22:16.105Z,9.40
2023-01-15T10:24:53.006Z,9.40
2023-01-15T10:27:24.384Z,9.40
2023-01-15T10:30:00.236Z,9.40
2023-01-15T10:32:39.873Z,9.50
2023-01-15T10:35:22.566Z,9.40
2023-01-15T10:37:57.402Z,9.50
2023-01-15T10:40:54.986Z,9.40
2023-01-15T10:43:31.541Z,9.50
2023-01-15T10:46:02.415Z,9.50
2023-01-15T10:48:35.480Z,9.40
2023-01-15T10:51:08.505Z,9.50
2023-01-15T10:53:43.449Z,9.50
2023-01-15T10:56:17.176Z,9.50
2023-01-15T10:58:50.194Z,9.60
2023-01-15T11:01:23.467Z,9.50
2023-01-15T11:03:51.523Z,9.50
2023-01-15T11:06:20.941Z,9.60
2023-01-15T11:09:09.087Z,9.70
2023-01-15T11:11:59.540Z,9.80
2023-01-15T11:14:53.553Z,9.90
2023-01-15T11:17:41.523Z,9.90
2023-01-15T11:20:26.925Z,10.00
2023-01-15T11:22:56.155Z,10.00
2023-01-15T11:25:29.641Z,10.10
2023-01-15T11:27:58.598Z,10.10
2023-01-15T11:30:29.090Z,10.00
2023-01-15T11:33:00.325Z,10.00
2023-01-15T11:35:28.375Z,9.90
2023-01-15T11:38:06.558Z,9.90
2023-01-15T11:40:34.863Z,9.90
2023-01-15T11:43:20.181Z,9.80
2023-01-15T11:46:06.640Z,10.00
2023-01-15T11:49:04.727Z,9.80
2023-01-15T11:51:35.672Z,9.70
2023-01-15T11:54:06.301Z,9.70
2023-01-15T11:56:37.689Z,9.70
2023-01-15T11:59:11.910Z,9.60
2023-01-15T12:01:50.198Z,9.60
2023-01-15T12:04:37.816Z,9.60
2023-01-15T12:07:07.478Z,9.70
2023-01-15T12:09:51.858Z,9.70
2023-01-15T12:12:29.338Z,9.80
2023-01-15T12:15:13.847Z,9.80
2023-01-15T12:18:00.984Z,9.50
2023-01-15T12:20:37.999Z,9.60
2023-01-15T12:23:33.734Z,9.60
2023-01-15T12:26:09.879Z,9.60
2023-01-15T12:28:41.260Z,9.60
2023-01-15T12:31:15.185Z,9.60
2023-01-15T12:33:47.566Z,9.60
2023-01-15T12:36:21.565Z,9.60
2023-01-15T12:38:52.395Z,9.70
2023-01-15T12:41:46.997Z,9.70
2023-01-15T12:44:38.603Z,9.90
2023-01-15T12:47:10.129Z,9.90
2023-01-15T12:49:45.795Z,9.90
2023-01-15T12:52:20.714Z,10.20
2023-01-15T12:54:53.580Z,10.00
2023-01-15T12:57:32.012Z,9.80
2023-01-15T13:00:03.849Z,9.80
2023-01-15T13:02:39.788Z,9.80
2023-01-15T13:05:18.289Z,9.80
2023-01-15T13:07:53.745Z,9.80
2023-01-15T13:10:25.567Z,9.90
2023-01-15T13:12:54.636Z,9.80
2023-01-15T13:15:29.192Z,10.00
2023-01-15T13:18:05.343Z,9.90
2023-01-15T13:20:41.900Z,9.90
2023-01-15T13:23:24.826Z,10.00
2023-01-15T13:26:06.871Z,10.10
2023-01-15T13:28:44.844Z,10.10
2023-01-15T13:31:30.900Z,10.10
2023-01-15T13:34:04.795Z,10.00
2023-01-15T13:36:40.439Z,9.90
2023-01-15T13:39:18.071Z,10.10
2023-01-15T13:42:08.255Z,10.10
2023-01-15T13:44:39.991Z,10.20
2023-01-15T13:47:10.956Z,10.40
2023-01-15T13:49:42.359Z,10.30
2023-01-15T13:52:23.632Z,10.30
2023-01-15T13:54:55.103Z,10.50
2023-01-15T13:57:26.625Z,10.40
2023-01-15T13:59:54.503Z,10.50
2023-01-15T14:02:28.629Z,10.30
2023-01-15T14:04:57.343Z,10.00
2023-01-15T14:07:34.084Z,9.80
2023-01-15T14:10:26.064Z,9.80
2023-01-15T14:13:10.294Z,9.80
2023-01-15T14:15:53.667Z,9.90
2023-01-15T14:18:38.872Z,9.90
2023-01-15T14:21:21.085Z,10.00
2023-01-15T14:24:21.048Z,10.10
2023-01-15T14:26:57.833Z,10.20
2023-01-15T14:29:46.043Z,10.00
2023-01-15T14:32:22.091Z,10.00
2023-01-15T14:34:57.021Z,10.10
2023-01-15T14:37:30.120Z,10.10
2023-01-15T14:40:00.276Z,10.20
2023-01-15T14:42:49.760Z,10.20
2023-01-15T14:45:26.855Z,9.90
2023-01-15T14:47:56.574Z,9.90
2023-01-15T14:50:39.035Z,10.00
2023-01-15T14:53:19.602Z,10.00
2023-01-15T14:55:50.592Z,10.00
2023-01-15T14:58:35.456Z,10.00
2023-01-15T15:01:13.190Z,10.00
2023-01-15T15:03:49.755Z,10.00
2023-01-15T15:06:19.132Z,10.00
2023-01-15T15:08:48.132Z,10.00
2023-01-15T15:11:42.328Z,10.00
2023-01-15T15:14:15.077Z,10.00
2023-01-15T15:16:48.480Z,9.90
2023-01-15T15:19:22.998Z,9.90
2023-01-15T15:21:51.251Z,9.90
2023-01-15T15:24:24.281Z,10.00
2023-01-15T15:26:52.281Z,10.00
2023-01-15T15:29:22.864Z,10.00
2023-01-15T15:31:56.667Z,10.00
2023-01-15T15:34:29.690Z,10.00
2023-01-15T15:37:01.452Z,10.10
2023-01-15T15:39:36.686Z,9.90
2023-01-15T15:42:30.033Z,10.00
2023-01-15T15:45:18.782Z,10.00
2023-01-15T15:48:09.668Z,10.00
2023-01-15T15:50:37.575Z,9.90
2023-01-15T15:53:06.811Z,10.00
2023-01-15T15:55:39.828Z,9.90
2023-01-15T15:58:09.063Z,10.00
2023-01-15T16:00:43.029Z,10.00
2023-01-15T16:03:21.011Z,10.10
2023-01-15T16:06:00.023Z,10.20
2023-01-15T16:08:29.803Z,9.90
2023-01-15T16:11:01.501Z,10.00
2023-01-15T16:13:33.481Z,10.10
2023-01-15T16:16:05.029Z,10.00
2023-01-15T16:18:35.688Z,10.10
2023-01-15T16:21:03.932Z,10.10
2023-01-15T16:23:32.100Z,9.90
2023-01-15T16:26:04.255Z,9.80
2023-01-15T16:28:39.926Z,9.70
2023-01-15T16:31:09.559Z,9.80
2023-01-15T16:33:38.558Z,9.60
2023-01-15T16:36:07.884Z,9.60
2023-01-15T16:38:38.918Z,9.50
2023-01-15T16:41:07.253Z,9.60
2023-01-15T16:43:52.583Z,9.50
2023-01-15T16:46:23.599Z,9.40
2023-01-15T16:49:25.691Z,9.20
2023-01-15T16:51:54.489Z,9.20
2023-01-15T16:54:41.885Z,9.10
2023-01-15T16:57:27.950Z,9.20
2023-01-15T16:59:58.744Z,9.10
2023-01-15T17:02:34.665Z,9.00
2023-01-15T17:05:14.826Z,9.00
2023-01-15T17:07:47.650Z,9.00
2023-01-15T17:10:21.335Z,8.80
2023-01-15T17:12:50.190Z,8.80
2023-01-15T17:15:41.317Z,8.60
2023-01-15T17:18:28.196Z,8.80
2023-01-15T17:20:56.127Z,8.70
2023-01-15T17:23:30.058Z,8.70
2023-01-15T17:25:59.335Z,8.70
2023-01-15T17:28:27.383Z,8.70
2023-01-15T17:31:00.143Z,8.70
2023-01-15T17:33:29.494Z,8.70
2023-01-15T17:36:00.673Z,8.80
2023-01-15T17:38:28.638Z,8.80
2023-01-15T17:40:59.113Z,8.80
2023-01-15T17:43:27.069Z,8.70
2023-01-15T17:45:54.948Z,8.70
2023-01-15T17:48:22.761Z,8.70
2023-01-15T17:50:51.916Z,8.70
2023-01-15T17:53:19.752Z,8.80
2023-01-15T17:56:05.279Z,8.70
2023-01-15T17:58:50.848Z,8.70
2023-01-15T18:01:38.602Z,8.60
2023-01-15T18:04:24.773Z,8.60
2023-01-15T18:06:57.038Z,8.50
2023-01-15T18:09:25.381Z,8.40
2023-01-15T18:11:53.219Z,8.30
2023-01-15T18:14:21.084Z,8.20
2023-01-15T18:16:48.959Z,8.10
2023-01-15T18:19:16.839Z,8.30
2023-01-15T18:21:44.787Z,8.40
2023-01-15T18:24:13.994Z,8.40
2023-01-15T18:26:42.614Z,8.40
2023-01-15T18:29:11.253Z,8.10
2023-01-15T18:31:40.091Z,8.30
2023-01-15T18:34:08.762Z,8.20
2023-01-15T18:36:36.766Z,8.20
2023-01-15T18:39:06.843Z,8.20
2023-01-15T18:41:55.092Z,8.20
2023-01-15T18:44:42.850Z,8.10
2023-01-15T18:47:13.280Z,8.00
2023-01-15T18:49:41.657Z,8.10
2023-01-15T18:52:27.795Z,8.10
2023-01-15T18:54:55.665Z,8.10
2023-01-15T18:57:25.407Z,8.10
2023-01-15T18:59:53.257Z,8.00
2023-01-15T19:02:22.632Z,8.00
2023-01-15T19:04:50.503Z,8.00
2023-01-15T19:07:18.678Z,7.90
2023-01-15T19:09:46.486Z,7.90
2023-01-15T19:12:16.940Z,7.70
2023-01-15T19:15:03.756Z,7.80
2023-01-15T19:17:49.107Z,7.70
2023-01-15T19:20:19.833Z,7.60
2023-01-15T19:22:59.983Z,7.70
2023-01-15T19:25:30.349Z,7.80
2023-01-15T19:27:58.925Z,7.80
2023-01-15T19:30:29.557Z,7.60
2023-01-15T19:32:57.822Z,7.60
2023-01-15T19:35:25.714Z,7.50
2023-01-15T19:37:55.031Z,7.50
2023-01-15T19:40:24.169Z,7.50
2023-01-15T19:43:09.646Z,7.40
2023-01-15T19:46:09.455Z,7.50
2023-01-15T19:48:54.689Z,7.70
2023-01-15T19:51:22.587Z,7.70
2023-01-15T19:53:50.449Z,7.70
2023-01-15T19:56:18.231Z,7.60
2023-01-15T19:58:46.056Z,7.70
2023-01-15T20:01:18.471Z,7.50
2023-01-15T20:03:47.197Z,7.60
2023-01-15T20:06:15.073Z,7.50
2023-01-15T20:08:42.921Z,7.60
2023-01-15T20:11:10.835Z,7.40
2023-01-15T20:13:53.147Z,7.50
2023-01-15T20:16:25.214Z,7.50
2023-01-15T20:18:55.021Z,7.50
2023-01-15T20:21:22.808Z,7.50
2023-01-15T20:23:50.632Z,7.40
2023-01-15T20:26:18.483Z,7.40
2023-01-15T20:28:47.689Z,7.40
2023-01-15T20:31:17.059Z,7.30
2023-01-15T20:33:46.570Z,7.30
2023-01-15T20:36:14.410Z,7.40
2023-01-15T20:38:42.267Z,7.30
2023-01-15T20:41:29.176Z,7.30
2023-01-15T20:44:14.547Z,7.40
2023-01-15T20:46:42.352Z,7.40
2023-01-15T20:49:27.401Z,7.30
2023-01-15T20:51:55.947Z,7.40
2023-01-15T20:54:25.009Z,7.50
2023-01-15T20:56:53.042Z,7.50
2023-01-15T20:59:21.055Z,7.50
2023-01-15T21:01:48.921Z,7.50
2023-01-15T21:04:18.317Z,7.40
2023-01-15T21:06:46.214Z,7.50
2023-01-15T21:09:14.040Z,7.50
2023-01-15T21:11:42.331Z,7.50
2023-01-15T21:14:10.165Z,7.60
2023-01-15T21:16:38.081Z,7.60
2023-01-15T21:19:05.925Z,7.70
2023-01-15T21:21:35.133Z,7.50
2023-01-15T21:24:03.249Z,7.50
2023-01-15T21:26:31.913Z,7.40
2023-01-15T21:28:59.803Z,7.40
2023-01-15T21:31:27.928Z,7.40
2023-01-15T21:33:56.882Z,7.50
2023-01-15T21:36:25.321Z,7.50
2023-01-15T21:38:55.372Z,7.60
2023-01-15T21:41:44.937Z,7.70
2023-01-15T21:44:32.126Z,7.70
2023-01-15T21:47:00.643Z,7.70
2023-01-15T21:49:31.574Z,7.60
2023-01-15T21:51:59.538Z,7.50
2023-01-15T21:54:29.008Z,7.40
2023-01-15T21:56:58.863Z,7.40
2023-01-15T21:59:26.890Z,7.50
2023-01-15T22:01:55.359Z,7.50
2023-01-15T22:04:25.251Z,7.50
2023-01-15T22:06:53.293Z,7.50
2023-01-15T22:09:21.710Z,7.40
2023-01-15T22:11:52.456Z,7.40
2023-01-15T22:14:23.676Z,7.40
2023-01-15T22:16:54.372Z,7.40
2023-01-15T22:19:23.379Z,7.40
2023-01-15T22:21:52.354Z,7.50
2023-01-15T22:24:23.757Z,7.50
2023-01-15T22:26:54.731Z,7.50
2023-01-15T22:29:23.424Z,7.40
2023-01-15T22:31:51.749Z,7.40
2023-01-15T22:34:21.377Z,7.90
2023-01-15T22:36:49.693Z,7.50
2023-01-15T22:39:17.740Z,7.40
2023-01-15T22:42:03.966Z,7.50
2023-01-15T22:44:33.691Z,7.40
2023-01-15T22:47:02.367Z,7.50
2023-01-15T22:49:30.888Z,7.40
2023-01-15T22:51:58.764Z,7.60
2023-01-15T22:54:26.608Z,7.60
2023-01-15T22:56:54.449Z,6.60
2023-01-15T22:59:22.340Z,7.30
2023-01-15T23:01:51.805Z,7.20
2023-01-15T23:04:22.262Z,7.30
2023-01-15T23:06:51.636Z,7.20
2023-01-15T23:09:20.160Z,7.20
2023-01-15T23:11:48.060Z,7.00
2023-01-15T23:14:16.615Z,7.20
2023-01-15T23:16:44.863Z,7.00
2023-01-15T23:19:14.397Z,7.20
2023-01-15T23:21:42.506Z,7.30
2023-01-15T23:24:11.575Z,7.20
2023-01-15T23:26:39.764Z,7.30
2023-01-15T23:29:07.856Z,7.30
2023-01-15T23:31:35.842Z,7.30
2023-01-15T23:34:03.782Z,7.40
2023-01-15T23:36:32.967Z,7.30
2023-01-15T23:39:00.814Z,7.30
2023-01-15T23:41:46.121Z,7.20
2023-01-15T23:44:33.704Z,7.20
2023-01-15T23:47:01.880Z,7.20
2023-01-15T23:49:29.737Z,7.10
2023-01-15T23:51:59.280Z,7.10
2023-01-15T23:54:28.880Z,7.20
2023-01-15T23:56:57.214Z,7.20
2023-01-15T23:59:25.474Z,7.10
